Time;durP1;ratioP1;P1;durP2;ratioP2;P2;SDS_P1;SDS_P2;PMS_P1;PMS_P2;Temp;Humidity;BMP_temperature;BMP_pressure;BME280_temperature;BME280_humidity;BME280_pressure;Samples;Min_cycle;Max_cycle;Signal;HPM_P1;HPM_P2
2022/06/25 00:01:26;;;;;;;4.25;2.80;;;19.90;99.90;;;;;;5012724;28;20277;-83
2022/06/25 00:03:52;;;;;;;5.50;2.90;;;19.90;99.90;;;;;;5012811;28;20183;-83
2022/06/25 00:06:19;;;;;;;2.92;2.50;;;19.90;99.90;;;;;;5016129;28;20230;-82
2022/06/25 00:08:45;;;;;;;4.32;2.33;;;19.90;99.90;;;;;;5016583;28;20183;-83
2022/06/25 00:13:56;;;;;;;3.33;2.67;;;19.70;99.90;;;;;;5018077;28;20181;-82
2022/06/25 00:16:22;;;;;;;4.55;2.88;;;19.70;99.90;;;;;;5016505;28;20178;-83
2022/06/25 00:18:48;;;;;;;10.88;2.78;;;19.60;99.90;;;;;;5017849;28;20167;-83
2022/06/25 00:21:14;;;;;;;3.08;2.55;;;19.60;99.90;;;;;;5016535;28;20177;-84
2022/06/25 00:23:39;;;;;;;3.67;2.78;;;19.60;99.90;;;;;;5017313;28;20190;-83
2022/06/25 00:26:05;;;;;;;4.70;3.10;;;19.60;99.90;;;;;;5015944;28;20290;-83
2022/06/25 00:28:31;;;;;;;2.50;2.30;;;19.60;99.90;;;;;;5017743;28;20255;-83
2022/06/25 00:30:57;;;;;;;4.53;3.22;;;19.60;99.90;;;;;;5016300;28;20498;-84
2022/06/25 00:33:22;;;;;;;5.63;2.85;;;19.60;99.90;;;;;;5016214;28;20302;-83
2022/06/25 00:35:48;;;;;;;4.03;2.95;;;19.60;99.90;;;;;;5015946;28;20226;-83
2022/06/25 00:38:14;;;;;;;3.55;3.13;;;19.60;99.90;;;;;;5014372;28;20175;-83
2022/06/25 00:40:39;;;;;;;6.93;3.10;;;19.50;99.90;;;;;;5003907;28;20191;-83
2022/06/25 00:43:05;;;;;;;3.63;3.30;;;19.60;99.90;;;;;;5000473;28;20175;-84
2022/06/25 00:45:31;;;;;;;3.88;2.88;;;19.60;99.90;;;;;;5014967;28;20175;-83
2022/06/25 00:47:56;;;;;;;4.47;3.15;;;19.50;99.90;;;;;;5015942;28;20194;-84
2022/06/25 00:50:22;;;;;;;5.28;3.20;;;19.40;99.90;;;;;;5017143;28;20170;-83
2022/06/25 00:52:54;;;;;;;3.63;3.25;;;19.40;99.90;;;;;;5015906;28;20190;-83
2022/06/25 00:55:23;;;;;;;6.05;3.10;;;19.40;99.90;;;;;;5016940;28;20624;-83
2022/06/25 00:57:50;;;;;;;6.15;2.88;;;19.40;99.90;;;;;;5015709;28;20210;-83
2022/06/25 01:00:17;;;;;;;4.32;3.33;;;19.30;99.90;;;;;;5016964;28;20190;-83
2022/06/25 01:02:44;;;;;;;5.90;3.30;;;19.30;99.90;;;;;;5016712;28;20167;-83
2022/06/25 01:05:13;;;;;;;5.25;3.50;;;19.40;99.90;;;;;;5015609;28;20218;-84
2022/06/25 01:07:43;;;;;;;7.32;3.28;;;19.30;99.90;;;;;;5015297;28;20226;-84
2022/06/25 01:10:09;;;;;;;4.03;3.47;;;19.20;99.90;;;;;;5016663;28;20237;-83
2022/06/25 01:12:35;;;;;;;5.65;3.33;;;19.20;99.90;;;;;;5015452;28;20180;-83
2022/06/25 01:15:03;;;;;;;5.10;3.10;;;19.10;99.90;;;;;;5015322;28;20175;-83
2022/06/25 01:17:29;;;;;;;5.40;3.00;;;19.20;99.90;;;;;;5015635;28;20183;-84
2022/06/25 01:19:55;;;;;;;4.80;3.38;;;19.10;99.90;;;;;;5015293;28;20181;-83
2022/06/25 01:22:21;;;;;;;5.32;3.47;;;19.00;99.90;;;;;;5015160;28;20183;-83
2022/06/25 01:24:47;;;;;;;7.10;3.28;;;19.00;99.90;;;;;;5016405;28;20517;-83
2022/06/25 01:27:14;;;;;;;4.28;3.33;;;19.10;99.90;;;;;;5015184;28;20203;-83
2022/06/25 01:29:40;;;;;;;3.47;3.17;;;19.00;99.90;;;;;;5015084;28;20175;-83
2022/06/25 01:32:06;;;;;;;3.20;2.90;;;19.10;99.90;;;;;;5014837;28;20183;-82
2022/06/25 01:34:32;;;;;;;5.65;3.42;;;19.10;99.90;;;;;;5014769;28;20564;-83
2022/06/25 01:36:58;;;;;;;3.58;3.10;;;19.10;99.90;;;;;;5014865;28;20278;-83
2022/06/25 01:39:23;;;;;;;3.63;3.33;;;19.00;99.90;;;;;;5014991;28;20630;-83
2022/06/25 01:41:49;;;;;;;5.13;3.40;;;19.00;99.90;;;;;;5016046;28;20202;-82
2022/06/25 01:44:15;;;;;;;4.00;3.53;;;19.00;99.90;;;;;;5016118;28;20740;-83
2022/06/25 01:46:41;;;;;;;5.00;3.55;;;19.00;99.90;;;;;;5015828;28;20765;-83
2022/06/25 01:49:06;;;;;;;4.75;3.92;;;19.00;99.90;;;;;;5014372;28;20693;-83
2022/06/25 01:51:32;;;;;;;4.38;3.72;;;18.90;99.90;;;;;;5014635;28;20524;-84
2022/06/25 01:53:58;;;;;;;5.53;4.32;;;18.80;99.90;;;;;;5011832;28;21171;-85
2022/06/25 01:56:23;;;;;;;4.35;3.90;;;18.70;99.90;;;;;;4994047;28;20309;-85
2022/06/25 01:58:49;;;;;;;5.38;3.90;;;18.70;99.90;;;;;;5000397;28;20606;-86
2022/06/25 02:01:14;;;;;;;6.25;4.00;;;18.70;99.90;;;;;;5015040;28;20857;-85
2022/06/25 02:03:40;;;;;;;6.75;3.78;;;18.70;99.90;;;;;;5013772;28;20626;-85
2022/06/25 02:06:06;;;;;;;7.68;4.10;;;18.70;99.90;;;;;;5014713;28;20195;-84
2022/06/25 02:08:37;;;;;;;5.32;3.50;;;18.70;99.90;;;;;;5013713;28;20205;-86
2022/06/25 02:11:06;;;;;;;6.88;3.88;;;18.60;99.90;;;;;;5015210;28;20163;-85
2022/06/25 02:13:32;;;;;;;8.70;4.28;;;18.60;99.90;;;;;;5013743;28;20183;-85
2022/06/25 02:15:58;;;;;;;4.53;3.88;;;18.60;99.90;;;;;;5015058;28;20171;-85
2022/06/25 02:18:25;;;;;;;6.35;3.75;;;18.60;99.90;;;;;;5013463;28;20180;-85
2022/06/25 02:20:50;;;;;;;10.35;4.07;;;18.60;99.90;;;;;;5014054;28;20195;-85
2022/06/25 02:23:18;;;;;;;6.70;3.72;;;18.60;99.90;;;;;;5015062;28;20179;-85
2022/06/25 02:25:44;;;;;;;7.20;4.10;;;18.60;99.90;;;;;;5013422;28;20640;-84
2022/06/25 02:28:10;;;;;;;4.13;3.50;;;18.70;99.90;;;;;;5013593;28;20183;-84
2022/06/25 02:30:36;;;;;;;7.70;4.00;;;18.70;99.90;;;;;;5014994;28;20694;-85
2022/06/25 02:33:03;;;;;;;5.55;4.00;;;18.70;99.90;;;;;;5019211;28;20274;-86
2022/06/25 02:35:29;;;;;;;5.55;3.60;;;18.50;99.90;;;;;;5013783;28;20321;-86
2022/06/25 02:37:56;;;;;;;5.28;4.07;;;18.50;99.90;;;;;;5015434;28;20171;-85
2022/06/25 02:40:22;;;;;;;8.65;4.30;;;18.50;99.90;;;;;;5014148;28;20205;-85
2022/06/25 02:42:47;;;;;;;8.07;4.18;;;18.60;99.90;;;;;;5014103;28;20492;-86
2022/06/25 02:45:13;;;;;;;8.85;4.50;;;18.60;99.90;;;;;;5013808;28;20191;-85
2022/06/25 02:47:39;;;;;;;8.88;4.43;;;18.60;99.90;;;;;;5013568;28;20213;-86
2022/06/25 02:50:06;;;;;;;5.20;4.40;;;18.60;99.90;;;;;;5013854;28;20167;-85
2022/06/25 02:52:31;;;;;;;9.45;4.20;;;18.60;99.90;;;;;;5013842;28;20617;-85
2022/06/25 02:54:57;;;;;;;7.82;4.10;;;18.60;99.90;;;;;;5014779;28;20203;-84
2022/06/25 03:00:08;;;;;;;8.93;4.45;;;18.70;99.90;;;;;;5015064;28;20178;-86
2022/06/25 03:02:34;;;;;;;15.15;5.38;;;18.80;99.90;;;;;;5011032;28;20180;-85
2022/06/25 03:04:59;;;;;;;14.65;5.15;;;18.80;99.90;;;;;;4999115;28;20237;-85
2022/06/25 03:07:26;;;;;;;5.65;4.53;;;18.70;99.90;;;;;;4995089;28;20543;-84
2022/06/25 03:09:51;;;;;;;6.65;4.53;;;18.70;99.90;;;;;;4995235;28;20504;-85
2022/06/25 03:12:17;;;;;;;7.03;4.95;;;18.70;99.90;;;;;;5008988;28;20179;-85
2022/06/25 03:14:43;;;;;;;5.18;4.68;;;18.70;99.90;;;;;;5014322;28;20172;-85
2022/06/25 03:17:09;;;;;;;12.30;5.93;;;18.70;99.90;;;;;;5014622;28;20173;-85
2022/06/25 03:19:35;;;;;;;6.55;4.60;;;18.70;99.90;;;;;;5014522;28;20175;-86
2022/06/25 03:22:01;;;;;;;9.45;4.97;;;18.60;99.90;;;;;;5013497;28;20681;-85
2022/06/25 03:24:27;;;;;;;6.78;5.22;;;18.60;99.90;;;;;;5014619;28;20171;-86
2022/06/25 03:26:53;;;;;;;9.60;5.30;;;18.50;99.90;;;;;;5014442;28;20245;-87
2022/06/25 03:29:19;;;;;;;8.38;5.65;;;18.50;99.90;;;;;;5013227;28;20198;-86
2022/06/25 03:31:44;;;;;;;6.85;5.60;;;18.50;99.90;;;;;;5013314;28;20175;-85
2022/06/25 03:34:10;;;;;;;8.90;6.15;;;18.40;99.90;;;;;;5014097;28;20215;-85
2022/06/25 03:36:36;;;;;;;7.50;5.97;;;18.40;99.90;;;;;;5013088;28;20550;-86
2022/06/25 03:39:03;;;;;;;5.85;5.28;;;18.40;99.90;;;;;;5014166;28;20603;-86
2022/06/25 03:41:38;;;;;;;7.68;5.60;;;18.40;99.90;;;;;;5013156;28;20171;-86
2022/06/25 03:44:05;;;;;;;7.38;5.47;;;18.40;99.90;;;;;;5013322;28;20261;-86
2022/06/25 03:46:32;;;;;;;10.23;5.60;;;18.50;99.90;;;;;;5014321;28;20213;-86
2022/06/25 03:48:59;;;;;;;13.85;6.03;;;18.50;99.90;;;;;;5012856;28;20229;-86
2022/06/25 03:51:25;;;;;;;7.00;5.70;;;18.60;99.90;;;;;;5015062;28;20187;-86
2022/06/25 03:53:51;;;;;;;7.32;5.93;;;18.50;99.90;;;;;;5014234;28;20207;-86
2022/06/25 03:56:17;;;;;;;8.43;6.53;;;18.60;99.90;;;;;;5014164;28;20206;-86
2022/06/25 03:58:44;;;;;;;8.40;6.28;;;18.60;99.90;;;;;;5014379;28;20182;-85
2022/06/25 04:01:09;;;;;;;9.15;5.60;;;18.70;99.90;;;;;;5014380;28;20179;-86
2022/06/25 04:03:35;;;;;;;9.52;6.35;;;18.70;99.90;;;;;;5013922;28;20179;-86
2022/06/25 04:06:02;;;;;;;7.63;5.95;;;18.80;99.90;;;;;;5014073;28;20210;-86
2022/06/25 04:08:28;;;;;;;8.88;7.32;;;18.80;99.90;;;;;;5013152;28;20257;-87
2022/06/25 04:10:54;;;;;;;8.93;7.93;;;18.80;99.90;;;;;;5012743;28;20178;-86
2022/06/25 04:13:20;;;;;;;9.10;7.30;;;18.80;99.90;;;;;;5012641;28;20171;-86
2022/06/25 04:15:45;;;;;;;13.18;8.60;;;18.80;99.90;;;;;;5012766;28;20219;-86
2022/06/25 04:18:12;;;;;;;9.50;7.35;;;18.90;99.90;;;;;;5014089;28;20606;-86
2022/06/25 04:20:38;;;;;;;12.93;8.20;;;19.00;99.90;;;;;;5014152;28;20167;-86
2022/06/25 04:23:04;;;;;;;7.75;6.95;;;19.10;99.90;;;;;;5014171;28;20259;-86
2022/06/25 04:25:30;;;;;;;9.52;7.90;;;19.10;99.90;;;;;;5014029;28;20254;-86
2022/06/25 04:30:41;;;;;;;8.90;7.18;;;19.20;99.90;;;;;;5014226;28;20225;-86
2022/06/25 04:33:06;;;;;;;8.68;7.82;;;19.20;99.90;;;;;;5008522;28;20192;-86
2022/06/25 04:35:32;;;;;;;9.00;8.10;;;19.20;99.90;;;;;;4993803;28;20217;-87
2022/06/25 04:37:58;;;;;;;10.25;7.75;;;19.20;99.90;;;;;;4992730;28;20525;-86
2022/06/25 04:40:24;;;;;;;10.15;7.28;;;19.20;99.90;;;;;;4994104;28;20171;-86
2022/06/25 04:42:49;;;;;;;11.20;7.78;;;19.30;99.90;;;;;;4992821;28;20180;-85
2022/06/25 04:45:15;;;;;;;15.60;8.02;;;19.40;99.90;;;;;;4992616;28;20641;-86
2022/06/25 04:47:41;;;;;;;8.80;7.90;;;19.40;99.90;;;;;;4992636;28;20702;-84
2022/06/25 04:50:07;;;;;;;8.18;7.32;;;19.40;99.90;;;;;;4992517;28;20634;-84
2022/06/25 04:52:33;;;;;;;6.90;6.15;;;19.40;99.90;;;;;;5011215;28;20194;-85
2022/06/25 04:54:59;;;;;;;9.48;7.95;;;19.50;99.90;;;;;;4996218;28;20176;-85
2022/06/25 04:57:25;;;;;;;9.07;6.60;;;19.50;99.90;;;;;;5013126;28;20605;-86
2022/06/25 04:59:51;;;;;;;10.63;7.00;;;19.50;99.90;;;;;;4997724;28;20187;-86
2022/06/25 05:02:17;;;;;;;8.32;7.25;;;19.50;99.90;;;;;;5012883;28;20168;-86
2022/06/25 05:04:43;;;;;;;8.73;6.80;;;19.60;99.90;;;;;;4996134;28;20588;-85
2022/06/25 05:07:08;;;;;;;9.07;6.15;;;19.60;99.90;;;;;;4995992;28;20359;-86
2022/06/25 05:09:34;;;;;;;9.25;6.93;;;19.60;99.90;;;;;;4997612;28;20673;-86
2022/06/25 05:12:00;;;;;;;8.43;6.40;;;19.70;99.90;;;;;;5012941;28;20176;-87
2022/06/25 05:14:25;;;;;;;8.13;6.32;;;19.80;99.90;;;;;;5012884;28;20204;-88
2022/06/25 05:16:53;;;;;;;12.15;7.47;;;19.80;99.90;;;;;;4996351;28;20202;-88
2022/06/25 05:19:21;;;;;;;10.02;6.85;;;19.80;99.90;;;;;;4995888;28;20270;-87
2022/06/25 05:21:46;;;;;;;11.23;6.53;;;19.80;99.90;;;;;;4997397;28;20172;-86
2022/06/25 05:24:12;;;;;;;7.50;5.57;;;19.90;99.90;;;;;;5012796;28;20183;-86
2022/06/25 05:26:38;;;;;;;6.65;5.65;;;19.90;99.90;;;;;;4996280;28;20290;-88
2022/06/25 05:29:05;;;;;;;6.47;5.82;;;19.90;99.90;;;;;;5012717;28;20518;-86
2022/06/25 05:31:31;;;;;;;9.43;6.10;;;19.80;99.90;;;;;;4996200;28;20168;-87
2022/06/25 05:33:56;;;;;;;7.32;5.30;;;19.90;99.90;;;;;;4995676;28;20278;-86
2022/06/25 05:36:22;;;;;;;6.88;5.68;;;19.90;99.90;;;;;;4997001;28;20319;-86
2022/06/25 05:38:49;;;;;;;7.50;5.85;;;19.80;99.90;;;;;;4997458;28;20175;-89
2022/06/25 05:41:14;;;;;;;5.53;4.97;;;19.80;99.90;;;;;;5012369;28;20231;-87
2022/06/25 05:43:40;;;;;;;7.60;5.45;;;19.80;99.90;;;;;;4997125;28;20172;-83
2022/06/25 05:46:07;;;;;;;8.43;5.65;;;19.80;99.90;;;;;;5012181;28;20269;-86
2022/06/25 05:48:34;;;;;;;6.45;5.22;;;19.80;99.90;;;;;;4996817;28;20615;-87
2022/06/25 05:51:01;;;;;;;6.40;5.53;;;19.80;99.90;;;;;;4997044;28;20208;-87
2022/06/25 05:53:27;;;;;;;6.00;5.43;;;19.80;99.90;;;;;;4996793;28;20263;-86
2022/06/25 05:55:53;;;;;;;7.82;6.45;;;19.80;99.90;;;;;;5011898;28;20168;-87
2022/06/25 05:58:22;;;;;;;6.65;5.95;;;19.80;99.90;;;;;;5012066;28;20186;-87
2022/06/25 06:00:48;;;;;;;7.15;5.85;;;19.90;99.90;;;;;;4996867;28;20167;-86
2022/06/25 06:03:14;;;;;;;7.00;6.15;;;19.90;99.90;;;;;;5014165;28;20191;-85
2022/06/25 06:05:39;;;;;;;6.40;5.57;;;19.90;99.90;;;;;;5015672;28;20186;-85
2022/06/25 06:08:08;;;;;;;6.78;5.25;;;19.90;99.90;;;;;;5016239;28;20646;-87
2022/06/25 06:10:35;;;;;;;5.82;4.85;;;20.00;99.90;;;;;;5016072;28;20171;-88
2022/06/25 06:13:00;;;;;;;8.00;5.53;;;20.00;99.90;;;;;;5013956;28;20179;-86
2022/06/25 06:15:26;;;;;;;6.85;5.10;;;20.10;99.90;;;;;;5015815;28;20183;-86
2022/06/25 06:17:52;;;;;;;10.50;5.40;;;20.10;99.90;;;;;;5014710;28;20233;-84
2022/06/25 06:20:19;;;;;;;5.68;5.00;;;20.20;99.90;;;;;;4997700;28;20180;-86
2022/06/25 06:22:45;;;;;;;4.82;4.35;;;20.20;99.90;;;;;;4996624;28;20172;-84
2022/06/25 06:25:10;;;;;;;4.88;4.38;;;20.30;99.90;;;;;;5000051;28;20572;-84
2022/06/25 06:27:36;;;;;;;6.80;4.88;;;20.30;99.90;;;;;;5014829;28;20227;-86
2022/06/25 06:30:03;;;;;;;6.72;4.38;;;20.40;99.90;;;;;;5016123;28;20609;-85
2022/06/25 06:32:28;;;;;;;7.28;4.18;;;20.50;99.90;;;;;;5016115;28;20155;-86
2022/06/25 06:34:54;;;;;;;6.07;3.90;;;20.60;99.90;;;;;;5014288;28;20218;-85
2022/06/25 06:37:20;;;;;;;4.25;3.60;;;20.60;99.90;;;;;;5015000;28;20249;-86
2022/06/25 06:39:50;;;;;;;6.72;3.47;;;20.70;99.90;;;;;;5014896;28;20187;-88
2022/06/25 06:42:16;;;;;;;7.50;3.35;;;20.80;99.90;;;;;;5013848;28;20591;-85
2022/06/25 06:44:41;;;;;;;5.75;3.30;;;20.90;99.90;;;;;;5013527;28;20225;-86
2022/06/25 06:47:07;;;;;;;4.18;3.40;;;21.00;99.90;;;;;;5014109;28;20654;-87
2022/06/25 06:49:33;;;;;;;6.60;3.40;;;21.10;99.90;;;;;;5015157;28;20171;-88
2022/06/25 06:51:58;;;;;;;3.80;3.40;;;21.20;99.90;;;;;;5015414;28;20479;-91
2022/06/25 06:54:24;;;;;;;5.28;3.60;;;21.20;99.90;;;;;;5015216;28;20197;-90
2022/06/25 06:56:50;;;;;;;7.63;3.25;;;21.40;99.90;;;;;;5014031;28;20264;-85
2022/06/25 06:59:16;;;;;;;3.47;3.17;;;21.50;99.90;;;;;;5013898;28;20223;-90
2022/06/25 07:01:41;;;;;;;4.30;3.00;;;21.70;99.90;;;;;;5014568;28;20594;-83
2022/06/25 07:04:07;;;;;;;4.22;2.75;;;21.90;99.90;;;;;;5014696;28;20179;-82
2022/06/25 07:06:33;;;;;;;5.82;3.33;;;22.10;99.90;;;;;;5014937;28;20198;-88
2022/06/25 07:08:58;;;;;;;7.22;3.05;;;22.20;99.90;;;;;;5015143;28;20218;-86
2022/06/25 07:11:31;;;;;;;8.43;2.97;;;22.40;99.90;;;;;;5015057;28;20677;-87
2022/06/25 07:14:06;;;;;;;5.40;3.05;;;22.60;99.90;;;;;;5014349;28;20692;-86
2022/06/25 07:16:34;;;;;;;4.53;3.20;;;22.80;99.90;;;;;;5013159;28;20210;-86
2022/06/25 07:19:00;;;;;;;3.55;3.00;;;22.80;99.90;;;;;;5003822;28;20176;-87
2022/06/25 07:21:27;;;;;;;5.32;2.85;;;22.90;99.90;;;;;;4994079;28;20182;-86
2022/06/25 07:23:53;;;;;;;4.53;2.92;;;23.00;99.90;;;;;;4993687;28;20180;-87
2022/06/25 07:26:22;;;;;;;7.43;2.83;;;23.10;99.90;;;;;;4994892;28;20203;-85
2022/06/25 07:28:48;;;;;;;4.55;2.75;;;23.30;99.90;;;;;;4994914;28;20176;-88
2022/06/25 07:31:14;;;;;;;4.28;2.80;;;23.40;99.90;;;;;;4993756;28;20176;-89
2022/06/25 07:33:40;;;;;;;4.47;2.88;;;23.60;99.90;;;;;;5002340;28;20186;-88
2022/06/25 07:36:07;;;;;;;3.00;2.60;;;23.60;99.90;;;;;;5010148;28;20230;-88
2022/06/25 07:38:33;;;;;;;5.35;2.80;;;23.80;99.90;;;;;;4993894;28;20183;-90
2022/06/25 07:40:59;;;;;;;4.40;2.70;;;23.80;99.90;;;;;;4994918;28;20168;-87
2022/06/25 07:43:27;;;;;;;4.95;2.75;;;24.00;99.90;;;;;;4993773;28;20191;-85
2022/06/25 07:45:56;;;;;;;4.43;2.60;;;24.10;99.90;;;;;;4993513;28;20640;-87
2022/06/25 07:48:22;;;;;;;3.00;2.55;;;24.20;99.90;;;;;;4993385;28;20646;-87
2022/06/25 07:53:49;;;;;;;4.13;2.15;;;24.30;99.90;;;;;;4973258;28;20271;-86
2022/06/25 07:56:14;;;;;;;3.70;2.20;;;24.40;99.90;;;;;;4986695;28;20192;-87
2022/06/25 07:58:40;;;;;;;5.28;2.42;;;24.50;99.90;;;;;;5012886;28;20313;-84
2022/06/25 08:01:06;;;;;;;5.47;1.92;;;24.50;99.90;;;;;;5008370;28;20350;-83
2022/06/25 08:03:32;;;;;;;4.25;1.65;;;24.70;99.90;;;;;;5004522;28;20176;-84
2022/06/25 08:05:58;;;;;;;3.47;2.22;;;24.80;99.90;;;;;;5002250;28;20175;-85
2022/06/25 08:08:24;;;;;;;5.50;1.70;;;24.90;99.90;;;;;;4992943;28;20180;-87
2022/06/25 08:10:51;;;;;;;2.42;1.63;;;24.90;99.90;;;;;;4992995;28;20180;-84
2022/06/25 08:13:17;;;;;;;2.83;1.85;;;24.90;99.60;;;;;;4993629;28;20187;-87
2022/06/25 08:15:43;;;;;;;2.92;1.70;;;24.90;99.90;;;;;;4993207;28;20176;-86
2022/06/25 08:18:09;;;;;;;2.35;1.73;;;25.00;99.90;;;;;;4993105;28;20610;-87
2022/06/25 08:20:34;;;;;;;3.00;1.90;;;25.10;99.90;;;;;;4994117;28;20184;-87
2022/06/25 08:23:00;;;;;;;1.73;1.60;;;25.10;99.50;;;;;;4994044;28;20176;-86
2022/06/25 08:25:26;;;;;;;2.30;2.00;;;25.20;99.90;;;;;;4993810;28;20180;-87
2022/06/25 08:27:53;;;;;;;4.47;1.73;;;25.30;99.90;;;;;;4996858;28;20594;-85
2022/06/25 08:30:24;;;;;;;2.47;1.50;;;25.50;99.90;;;;;;4996587;28;20184;-87
2022/06/25 08:32:50;;;;;;;1.65;1.40;;;25.50;99.40;;;;;;4999447;28;20172;-89
2022/06/25 08:35:16;;;;;;;2.00;1.27;;;25.50;99.90;;;;;;5016507;28;20226;-86
2022/06/25 08:37:47;;;;;;;2.03;1.40;;;25.60;98.80;;;;;;5016225;28;20194;-86
2022/06/25 08:40:13;;;;;;;2.00;1.45;;;25.70;99.70;;;;;;5016550;28;20186;-90
2022/06/25 08:42:39;;;;;;;1.63;1.33;;;25.70;99.00;;;;;;5017750;28;20160;-89
2022/06/25 08:45:06;;;;;;;6.93;1.75;;;25.80;99.90;;;;;;5016353;28;20286;-87
2022/06/25 08:47:32;;;;;;;2.08;1.55;;;26.00;98.60;;;;;;5016193;28;20202;-87
2022/06/25 08:50:02;;;;;;;2.45;1.40;;;26.10;99.70;;;;;;5016093;28;20186;-85
2022/06/25 08:52:28;;;;;;;3.17;1.60;;;26.10;98.90;;;;;;5016044;28;20681;-89
2022/06/25 08:54:55;;;;;;;3.75;1.90;;;26.30;99.60;;;;;;5016562;28;20525;-86
2022/06/25 08:57:22;;;;;;;4.85;1.30;;;26.30;98.70;;;;;;5017664;28;20221;-84
2022/06/25 08:59:47;;;;;;;2.55;1.80;;;26.40;97.80;;;;;;5016095;28;20179;-87
2022/06/25 09:02:13;;;;;;;2.38;1.65;;;26.50;99.50;;;;;;5016257;28;20190;-88
2022/06/25 09:04:39;;;;;;;3.00;1.70;;;26.50;99.30;;;;;;5016690;28;20173;-86
2022/06/25 09:07:18;;;;;;;2.28;1.55;;;26.70;99.10;;;;;;5015692;28;20671;-85
2022/06/25 09:09:49;;;;;;;2.58;1.60;;;26.80;99.40;;;;;;5017067;28;20172;-87
2022/06/25 09:12:15;;;;;;;2.60;1.75;;;26.90;99.10;;;;;;5015716;28;20179;-91
2022/06/25 09:14:41;;;;;;;2.88;2.00;;;26.80;98.70;;;;;;5015829;28;20265;-86
2022/06/25 09:17:12;;;;;;;2.88;1.70;;;26.80;98.70;;;;;;5017074;28;20198;-86
2022/06/25 09:19:51;;;;;;;2.90;1.90;;;26.90;99.60;;;;;;5015359;28;20198;-86
2022/06/25 09:22:22;;;;;;;2.13;1.70;;;27.00;98.80;;;;;;5015662;28;20214;-84
2022/06/25 09:24:57;;;;;;;2.15;1.77;;;27.00;99.20;;;;;;5015469;28;20172;-84
2022/06/25 09:27:33;;;;;;;2.53;1.88;;;26.80;98.10;;;;;;5015382;28;20210;-86
2022/06/25 09:30:16;;;;;;;2.10;1.90;;;26.80;99.50;;;;;;5015204;28;20174;-84
2022/06/25 09:32:46;;;;;;;2.75;1.58;;;26.90;99.90;;;;;;5015250;28;20203;-83
2022/06/25 09:35:13;;;;;;;2.42;1.90;;;26.90;98.70;;;;;;5015769;28;20312;-85
2022/06/25 09:37:40;;;;;;;2.00;1.80;;;26.90;99.70;;;;;;4994957;28;20584;-89
2022/06/25 09:40:07;;;;;;;3.15;1.83;;;26.80;99.40;;;;;;5006780;28;20195;-86
2022/06/25 09:42:34;;;;;;;2.28;1.80;;;26.70;97.80;;;;;;5014780;28;20179;-84
2022/06/25 09:45:11;;;;;;;2.88;1.60;;;26.70;98.10;;;;;;5014987;28;20676;-84
2022/06/25 09:47:43;;;;;;;2.63;1.77;;;26.90;97.80;;;;;;5014949;28;20656;-84
2022/06/25 09:50:14;;;;;;;2.25;1.30;;;26.80;97.30;;;;;;5014962;28;20179;-86
2022/06/25 09:52:55;;;;;;;3.83;1.55;;;27.00;97.90;;;;;;5014713;28;20194;-85
2022/06/25 09:55:26;;;;;;;7.28;1.50;;;27.10;98.00;;;;;;5014612;28;20628;-84
2022/06/25 09:57:53;;;;;;;5.95;1.75;;;27.30;98.30;;;;;;5014951;28;20175;-86
2022/06/25 10:00:20;;;;;;;1.67;1.20;;;27.30;97.70;;;;;;5014860;28;20180;-86
2022/06/25 10:02:48;;;;;;;3.85;1.40;;;27.50;97.00;;;;;;5014671;28;20175;-84
2022/06/25 10:05:17;;;;;;;1.35;1.00;;;27.60;96.50;;;;;;5014173;28;20179;-85
2022/06/25 10:10:44;;;;;;;1.38;1.17;;;27.70;94.90;;;;;;5016050;28;20206;-84
2022/06/25 10:13:10;;;;;;;2.10;1.08;;;27.60;96.00;;;;;;5015497;28;20630;-86
2022/06/25 10:15:37;;;;;;;1.83;1.20;;;27.70;96.50;;;;;;5014074;28;20187;-84
2022/06/25 10:18:06;;;;;;;1.08;0.90;;;27.80;96.00;;;;;;5015729;28;20167;-85
2022/06/25 10:20:33;;;;;;;1.75;1.27;;;27.80;93.60;;;;;;5014166;28;20253;-86
2022/06/25 10:23:01;;;;;;;1.20;1.10;;;27.70;94.10;;;;;;5014455;28;20197;-85
2022/06/25 10:25:28;;;;;;;2.53;1.20;;;27.70;94.70;;;;;;5015471;28;20262;-84
2022/06/25 10:28:15;;;;;;;2.65;1.20;;;27.70;94.60;;;;;;5014200;28;20214;-87
2022/06/25 10:30:50;;;;;;;1.33;0.98;;;27.80;95.30;;;;;;5014021;28;20187;-85
2022/06/25 10:33:29;;;;;;;2.05;1.55;;;27.90;95.50;;;;;;5014214;28;20277;-85
2022/06/25 10:35:59;;;;;;;1.77;1.02;;;28.10;95.50;;;;;;5013652;28;20602;-86
2022/06/25 10:38:27;;;;;;;2.78;1.35;;;28.10;94.80;;;;;;5015066;28;20194;-85
2022/06/25 10:42:58;;;;;;;1.20;0.80;;;28.20;94.70;;;;;;5015215;28;20194;-85
2022/06/25 10:43:47;;;;;;;1.65;1.00;;;28.30;92.90;;;;;;5015164;28;20183;-87
2022/06/25 10:46:33;;;;;;;2.40;0.90;;;28.30;93.60;;;;;;5013759;28;20548;-84
2022/06/25 10:49:19;;;;;;;1.30;1.02;;;28.30;94.40;;;;;;5013887;28;20198;-85
2022/06/25 10:51:50;;;;;;;2.67;1.10;;;28.30;95.40;;;;;;5013739;28;20229;-85
2022/06/25 10:54:25;;;;;;;0.98;0.77;;;28.30;94.00;;;;;;5015024;28;20179;-84
2022/06/25 10:56:57;;;;;;;6.22;1.00;;;28.30;93.30;;;;;;5014814;28;20183;-83
2022/06/25 10:59:34;;;;;;;1.15;0.98;;;28.50;93.60;;;;;;5013661;28;20552;-83
2022/06/25 11:02:09;;;;;;;2.05;0.90;;;28.50;92.10;;;;;;5013567;28;20187;-85
2022/06/25 11:04:35;;;;;;;1.77;1.00;;;28.50;92.50;;;;;;5012956;28;20183;-83
2022/06/25 11:07:19;;;;;;;2.28;0.90;;;28.40;91.20;;;;;;5014668;28;20261;-84
2022/06/25 11:09:51;;;;;;;0.95;0.85;;;28.40;91.90;;;;;;5013498;28;20183;-85
2022/06/25 11:12:18;;;;;;;1.33;0.80;;;28.50;93.60;;;;;;5014593;28;20278;-82
2022/06/25 11:14:48;;;;;;;1.20;0.82;;;28.60;93.10;;;;;;5013291;28;20183;-82
2022/06/25 11:17:14;;;;;;;2.05;0.80;;;28.70;93.20;;;;;;5014655;28;20241;-85
2022/06/25 11:19:42;;;;;;;1.58;0.68;;;28.80;92.70;;;;;;5013080;28;20602;-85
2022/06/25 11:22:08;;;;;;;0.93;0.80;;;28.70;92.70;;;;;;5012791;28;20270;-86
2022/06/25 11:24:33;;;;;;;1.00;0.80;;;28.80;92.40;;;;;;5002433;28;20262;-84
2022/06/25 11:29:52;;;;;;;1.00;0.73;;;28.80;91.80;;;;;;5014735;28;20178;-83
2022/06/25 11:32:26;;;;;;;1.52;0.80;;;28.90;91.90;;;;;;5014134;28;20171;-85
2022/06/25 11:34:54;;;;;;;1.35;0.70;;;29.10;92.30;;;;;;5009768;28;20218;-85
2022/06/25 11:37:20;;;;;;;1.48;0.75;;;29.10;92.00;;;;;;5012853;28;20171;-83
2022/06/25 11:39:47;;;;;;;1.77;0.90;;;29.20;92.20;;;;;;5014392;28;20175;-84
2022/06/25 11:42:15;;;;;;;1.48;0.80;;;29.20;90.70;;;;;;5013047;28;20617;-83
2022/06/25 11:44:54;;;;;;;1.80;0.80;;;29.30;91.40;;;;;;5012786;28;20624;-84
2022/06/25 11:47:22;;;;;;;1.10;0.63;;;29.30;90.30;;;;;;5007136;28;20219;-88
2022/06/25 11:49:49;;;;;;;1.35;0.80;;;29.30;89.60;;;;;;5008531;28;20194;-82
2022/06/25 11:52:16;;;;;;;1.05;0.73;;;29.30;89.50;;;;;;5011519;28;20221;-82
2022/06/25 11:54:43;;;;;;;1.60;0.90;;;29.50;90.10;;;;;;5013084;28;20182;-84
2022/06/25 11:57:29;;;;;;;1.00;0.80;;;29.60;91.00;;;;;;5013072;28;20191;-84
2022/06/25 11:59:56;;;;;;;1.00;0.80;;;29.40;90.40;;;;;;4997168;28;20191;-85
2022/06/25 12:02:22;;;;;;;1.88;0.80;;;29.40;90.80;;;;;;5018125;28;20471;-83
2022/06/25 12:04:48;;;;;;;2.40;0.70;;;29.40;90.50;;;;;;5019980;28;20613;-84
2022/06/25 12:07:26;;;;;;;0.80;0.70;;;29.60;91.20;;;;;;5019228;28;20218;-83
2022/06/25 12:09:54;;;;;;;1.00;0.80;;;29.70;91.20;;;;;;5019996;28;20627;-83
2022/06/25 12:12:21;;;;;;;0.73;0.60;;;29.80;91.10;;;;;;5020533;28;20189;-86
2022/06/25 12:14:48;;;;;;;1.23;0.80;;;29.90;90.00;;;;;;5017202;28;20217;-81
2022/06/25 12:17:15;;;;;;;2.55;0.68;;;30.00;88.70;;;;;;5009164;28;20247;-83
2022/06/25 12:19:49;;;;;;;1.65;0.70;;;30.00;89.50;;;;;;5016946;28;20186;-82
2022/06/25 12:22:19;;;;;;;1.10;0.85;;;30.00;88.60;;;;;;5020319;28;20173;-84
2022/06/25 12:24:48;;;;;;;1.05;0.73;;;30.20;88.80;;;;;;5018474;28;20194;-81
2022/06/25 12:27:14;;;;;;;2.05;0.75;;;30.30;90.30;;;;;;5009453;28;20206;-82
2022/06/25 12:29:40;;;;;;;0.88;0.55;;;30.50;87.70;;;;;;5010556;28;20186;-81
2022/06/25 12:32:05;;;;;;;1.52;0.52;;;30.60;87.50;;;;;;5011405;28;20186;-81
2022/06/25 12:34:31;;;;;;;1.73;0.60;;;30.60;87.10;;;;;;5014434;28;20204;-82
2022/06/25 12:36:59;;;;;;;0.88;0.70;;;30.70;85.30;;;;;;5018005;28;20186;-82
2022/06/25 12:39:37;;;;;;;1.67;0.60;;;30.70;86.50;;;;;;5019782;28;20264;-84
2022/06/25 12:42:05;;;;;;;1.17;0.40;;;30.50;83.60;;;;;;5000474;28;20218;-82
2022/06/25 12:44:35;;;;;;;0.73;0.45;;;30.50;85.10;;;;;;5011088;28;20197;-83
2022/06/25 12:47:07;;;;;;;1.20;0.52;;;30.50;86.30;;;;;;5016921;28;20312;-81
2022/06/25 12:49:59;;;;;;;1.80;0.60;;;30.40;86.20;;;;;;5018626;28;20743;-81
2022/06/25 12:52:34;;;;;;;1.52;0.82;;;30.40;84.40;;;;;;5014111;28;20629;-81
2022/06/25 12:55:00;;;;;;;0.73;0.50;;;30.50;85.20;;;;;;5017664;28;20240;-81
2022/06/25 12:57:37;;;;;;;1.27;0.60;;;30.70;85.00;;;;;;5017513;28;20190;-83
2022/06/25 13:00:11;;;;;;;1.75;0.50;;;30.70;85.20;;;;;;5000185;28;20203;-81
2022/06/25 13:02:38;;;;;;;1.75;0.50;;;30.80;83.20;;;;;;5014859;28;20655;-82
2022/06/25 13:05:04;;;;;;;2.15;0.50;;;30.90;80.60;;;;;;5005021;28;20533;-81